Time;durP1;ratioP1;P1;durP2;ratioP2;P2;SDS_P1;SDS_P2;PMS_P1;PMS_P2;Temp;Humidity;BMP_temperature;BMP_pressure;BME280_temperature;BME280_humidity;BME280_pressure;Samples;Min_cycle;Max_cycle;Signal;HPM_P1;HPM_P2
2022/10/17 00:01:43;;;;;;;11.67;4.20;;;;;15.70;99407.00;;;;16507015;28;20265;-82
2022/10/17 00:09:46;;;;;;;10.20;4.40;;;;;16.20;99405.00;;;;16535788;28;20228;-81
2022/10/17 00:17:49;;;;;;;8.90;4.10;;;;;16.50;99403.00;;;;16532732;28;20251;-81
2022/10/17 00:26:00;;;;;;;7.00;3.50;;;;;16.00;99406.00;;;;16538776;28;20232;-81
2022/10/17 00:34:02;;;;;;;3.87;3.47;;;;;16.40;99422.00;;;;16514769;28;20228;-81
2022/10/17 00:42:07;;;;;;;4.40;3.90;;;;;16.60;99421.00;;;;16539694;28;20220;-81
2022/10/17 00:50:10;;;;;;;5.07;3.43;;;;;16.00;99416.00;;;;16499558;28;20248;-81
2022/10/17 00:58:14;;;;;;;4.37;3.30;;;;;16.00;99417.00;;;;16496668;28;20228;-81
2022/10/17 01:06:17;;;;;;;13.13;3.57;;;;;15.80;99422.00;;;;16493706;28;20575;-81
2022/10/17 01:14:25;;;;;;;6.57;4.20;;;;;16.00;99417.00;;;;16512544;28;20250;-81
2022/10/17 01:22:32;;;;;;;4.73;3.77;;;;;15.50;99430.00;;;;16528602;28;20225;-81
2022/10/17 01:30:55;;;;;;;13.97;4.00;;;;;16.10;99428.00;;;;16519593;28;20314;-82
2022/10/17 01:39:01;;;;;;;6.77;4.50;;;;;16.30;99417.00;;;;16473140;28;20224;-81
2022/10/17 01:47:07;;;;;;;5.97;3.67;;;;;15.40;99421.00;;;;16493947;28;20244;-81
2022/10/17 01:55:12;;;;;;;5.47;3.77;;;;;15.40;99411.00;;;;16529654;28;20263;-81
2022/10/17 02:03:18;;;;;;;7.17;4.57;;;;;16.10;99411.00;;;;16538415;28;20202;-82
2022/10/17 02:11:22;;;;;;;10.23;4.30;;;;;15.60;99402.00;;;;16541007;28;20261;-81
2022/10/17 02:19:37;;;;;;;6.77;3.20;;;;;15.30;99403.00;;;;16487619;28;20319;-81
2022/10/17 02:27:45;;;;;;;7.40;3.93;;;;;15.40;99409.00;;;;16495471;28;20771;-81
2022/10/17 02:35:51;;;;;;;6.77;4.13;;;;;15.40;99417.00;;;;16514021;28;20234;-80
2022/10/17 02:43:54;;;;;;;12.10;4.07;;;;;15.00;99421.00;;;;16544547;28;20211;-80
2022/10/17 02:52:05;;;;;;;7.97;3.80;;;;;15.30;99430.00;;;;16527359;28;20232;-80
2022/10/17 03:00:11;;;;;;;4.60;3.90;;;;;15.90;99425.00;;;;16506025;28;20270;-81
2022/10/17 03:08:15;;;;;;;9.90;4.30;;;;;15.60;99429.00;;;;16499680;28;20219;-80
2022/10/17 03:16:19;;;;;;;6.53;5.00;;;;;15.80;99431.00;;;;16534827;28;20281;-80
2022/10/17 03:24:23;;;;;;;11.50;5.50;;;;;15.60;99435.00;;;;16527947;28;20200;-80
2022/10/17 03:32:26;;;;;;;12.40;6.43;;;;;15.60;99447.00;;;;16522375;28;20267;-80
2022/10/17 03:40:31;;;;;;;10.30;6.27;;;;;15.80;99455.00;;;;16506497;28;20323;-81
2022/10/17 03:48:34;;;;;;;6.40;5.80;;;;;15.70;99458.00;;;;16477779;28;20310;-80
2022/10/17 03:56:38;;;;;;;5.50;5.10;;;;;15.60;99456.00;;;;16455293;28;20256;-80
2022/10/17 04:04:45;;;;;;;8.30;6.40;;;;;15.60;99462.00;;;;16433638;28;20267;-80
2022/10/17 04:12:49;;;;;;;18.07;6.73;;;;;15.60;99454.00;;;;16589584;23;20231;-48
2022/10/17 04:20:53;;;;;;;7.40;6.57;;;;;15.60;99473.00;;;;16595273;28;20229;-47
2022/10/17 04:28:58;;;;;;;9.90;6.50;;;;;15.20;99477.00;;;;16581647;28;20278;-48
2022/10/17 04:37:01;;;;;;;7.90;6.27;;;;;15.30;99483.00;;;;16596196;28;20230;-48
2022/10/17 04:45:06;;;;;;;8.13;5.73;;;;;15.10;99491.00;;;;16584504;28;20226;-47
2022/10/17 04:53:10;;;;;;;6.77;5.23;;;;;15.10;99492.00;;;;16590740;28;20250;-48
2022/10/17 05:01:16;;;;;;;9.90;6.20;;;;;15.50;99484.00;;;;16593821;28;20230;-47
2022/10/17 05:09:21;;;;;;;14.53;8.23;;;;;15.30;99493.00;;;;16595917;28;20256;-47
2022/10/17 05:17:25;;;;;;;13.73;6.67;;;;;15.20;99494.00;;;;16601009;28;20246;-47
2022/10/17 05:25:28;;;;;;;8.27;5.90;;;;;15.10;99494.00;;;;16595495;28;20234;-48
2022/10/17 05:33:32;;;;;;;8.17;5.67;;;;;15.10;99491.00;;;;16594616;28;20241;-47
2022/10/17 05:41:35;;;;;;;9.80;6.10;;;;;15.20;99501.00;;;;16595377;28;20223;-47
2022/10/17 05:49:39;;;;;;;11.40;6.30;;;;;15.10;99504.00;;;;16585919;28;20607;-47
2022/10/17 05:57:41;;;;;;;7.63;5.10;;;;;15.00;99505.00;;;;16583165;28;20227;-48
2022/10/17 06:05:51;;;;;;;9.10;6.30;;;;;14.80;99515.00;;;;16582584;28;20631;-47
2022/10/17 06:13:54;;;;;;;8.73;6.07;;;;;14.80;99532.00;;;;16584942;28;20276;-47
2022/10/17 06:22:01;;;;;;;11.90;6.20;;;;;14.90;99528.00;;;;16603421;28;20218;-48
2022/10/17 06:30:05;;;;;;;14.83;6.30;;;;;14.90;99521.00;;;;16582511;28;20901;-47
2022/10/17 06:38:09;;;;;;;7.77;5.70;;;;;15.20;99529.00;;;;16577660;28;20218;-47
2022/10/17 06:46:14;;;;;;;6.70;6.00;;;;;15.60;99536.00;;;;16582792;28;20301;-47
2022/10/17 06:54:30;;;;;;;11.73;5.13;;;;;15.60;99555.00;;;;16587639;28;20362;-48
2022/10/17 07:03:05;;;;;;;6.40;5.13;;;;;15.90;99575.00;;;;16566021;28;20242;-48
2022/10/17 07:11:13;;;;;;;7.67;5.57;;;;;15.80;99582.00;;;;16584541;28;20261;-47
2022/10/17 07:19:15;;;;;;;7.17;5.07;;;;;16.10;99572.00;;;;16576545;28;20708;-48
2022/10/17 07:27:19;;;;;;;12.33;5.10;;;;;16.20;99585.00;;;;16587406;28;20199;-47
2022/10/17 07:35:23;;;;;;;7.67;6.47;;;;;16.60;99586.00;;;;16592315;28;20235;-48
2022/10/17 07:43:28;;;;;;;11.13;5.50;;;;;16.80;99585.00;;;;16589284;28;20737;-48
2022/10/17 07:51:31;;;;;;;13.23;10.33;;;;;17.10;99596.00;;;;16614049;28;20309;-47
2022/10/17 07:59:35;;;;;;;8.47;6.50;;;;;17.30;99595.00;;;;16585083;28;20251;-47
2022/10/17 08:07:37;;;;;;;6.00;5.40;;;;;17.70;99607.00;;;;16573115;28;22551;-47
2022/10/17 08:15:41;;;;;;;7.63;5.40;;;;;17.80;99599.00;;;;16569247;28;20230;-47
2022/10/17 08:23:44;;;;;;;5.90;5.13;;;;;18.20;99594.00;;;;16587967;28;20592;-47
2022/10/17 08:31:47;;;;;;;5.33;4.83;;;;;18.50;99588.00;;;;16581963;28;20219;-48
2022/10/17 08:39:50;;;;;;;8.30;4.80;;;;;18.60;99601.00;;;;16589848;28;20234;-48
2022/10/17 08:47:58;;;;;;;9.17;4.47;;;;;19.20;99601.00;;;;16580976;28;20203;-47
2022/10/17 08:56:05;;;;;;;8.00;3.80;;;;;19.60;99599.00;;;;16578585;28;20288;-48
2022/10/17 09:04:32;;;;;;;5.93;3.70;;;;;20.40;99598.00;;;;16577942;28;20294;-47
2022/10/17 09:12:41;;;;;;;8.40;3.77;;;;;20.50;99593.00;;;;16583177;28;20234;-48
2022/10/17 09:20:47;;;;;;;3.63;3.33;;;;;20.50;99595.00;;;;16578265;28;20219;-47
2022/10/17 09:28:54;;;;;;;3.83;3.07;;;;;21.20;99582.00;;;;16579169;28;20219;-47
2022/10/17 09:37:00;;;;;;;6.57;4.00;;;;;22.40;99583.00;;;;16579206;23;20703;-85
2022/10/17 09:45:18;;;;;;;5.80;3.97;;;;;21.90;99584.00;;;;16561587;28;20226;-85
2022/10/17 09:53:26;;;;;;;3.53;3.23;;;;;22.30;99578.00;;;;16563226;28;20220;-85
2022/10/17 10:01:30;;;;;;;6.53;4.10;;;;;22.60;99581.00;;;;16570472;28;20247;-86
2022/10/17 10:09:35;;;;;;;6.00;3.73;;;;;23.00;99580.00;;;;16594069;23;20264;-47
2022/10/17 10:17:40;;;;;;;6.53;3.47;;;;;23.20;99577.00;;;;16508111;28;20619;-49
2022/10/17 10:25:54;;;;;;;4.70;3.50;;;;;24.30;99572.00;;;;16521064;28;20224;-48
2022/10/17 10:33:57;;;;;;;7.57;4.07;;;;;24.10;99580.00;;;;16516437;28;20224;-48
2022/10/17 10:42:02;;;;;;;5.77;2.93;;;;;24.80;99592.00;;;;16511480;28;21886;-48
2022/10/17 10:50:21;;;;;;;3.93;3.27;;;;;24.40;99595.00;;;;16501397;28;20223;-49
2022/10/17 11:07:52;;;;;;;6.80;3.70;;;;;25.90;99576.00;;;;16506980;28;20592;-49
2022/10/17 11:15:57;;;;;;;3.27;3.07;;;;;25.90;99580.00;;;;16508804;28;20228;-48
2022/10/17 11:24:06;;;;;;;4.10;3.07;;;;;26.80;99574.00;;;;16506022;28;20210;-49
2022/10/17 11:32:13;;;;;;;5.67;2.90;;;;;27.30;99547.00;;;;16494377;28;20742;-49
2022/10/17 11:40:21;;;;;;;8.63;3.20;;;;;28.30;99552.00;;;;16511643;28;20219;-48
2022/10/17 11:48:26;;;;;;;4.77;2.87;;;;;28.60;99548.00;;;;16505116;28;20230;-48
2022/10/17 11:56:35;;;;;;;5.20;2.90;;;;;29.20;99543.00;;;;16508382;28;20715;-49
2022/10/17 12:04:45;;;;;;;4.37;2.30;;;;;30.60;99541.00;;;;16505174;28;20240;-49
2022/10/17 12:12:49;;;;;;;3.73;1.43;;;;;30.80;99529.00;;;;16506991;28;20230;-49
2022/10/17 12:20:57;;;;;;;2.90;1.60;;;;;30.60;99530.00;;;;16502621;28;20629;-49
2022/10/17 12:29:01;;;;;;;2.90;1.63;;;;;30.00;99528.00;;;;16503171;28;20232;-48
2022/10/17 12:37:03;;;;;;;4.00;1.77;;;;;29.60;99536.00;;;;16502326;28;20577;-48
2022/10/17 12:45:39;;;;;;;3.70;1.73;;;;;29.90;99545.00;;;;16499727;28;20893;-49
2022/10/17 12:53:49;;;;;;;4.33;2.00;;;;;30.70;99540.00;;;;16506275;28;20224;-48
2022/10/17 13:01:53;;;;;;;2.60;1.97;;;;;31.80;99541.00;;;;16507022;28;20228;-49
2022/10/17 13:10:03;;;;;;;2.73;1.87;;;;;29.60;99546.00;;;;16515230;28;20603;-48
2022/10/17 13:18:06;;;;;;;2.50;2.00;;;;;29.60;99556.00;;;;16517346;28;20228;-49
2022/10/17 13:26:15;;;;;;;2.53;1.80;;;;;29.90;99560.00;;;;16521008;28;20218;-49
2022/10/17 13:34:19;;;;;;;4.00;1.77;;;;;29.60;99572.00;;;;16517679;28;20223;-49
2022/10/17 13:42:26;;;;;;;5.10;2.50;;;;;27.80;99596.00;;;;16508312;28;20196;-49
2022/10/17 13:50:38;;;;;;;5.57;2.80;;;;;28.20;99606.00;;;;16516375;28;20224;-48
2022/10/17 13:58:44;;;;;;;7.30;2.80;;;;;28.10;99608.00;;;;16516946;28;20224;-49
2022/10/17 14:06:47;;;;;;;6.27;3.00;;;;;27.30;99602.00;;;;16511627;28;20336;-48
2022/10/17 14:14:53;;;;;;;7.03;3.77;;;;;27.00;99615.00;;;;16513419;28;20232;-49
2022/10/17 14:22:56;;;;;;;4.37;2.97;;;;;26.90;99616.00;;;;16514925;28;20214;-48
2022/10/17 14:31:14;;;;;;;6.37;2.60;;;;;27.10;99630.00;;;;16508124;28;20778;-48
2022/10/17 14:39:21;;;;;;;2.60;2.23;;;;;27.40;99621.00;;;;16498352;28;20652;-49
2022/10/17 14:47:27;;;;;;;5.23;2.83;;;;;27.40;99617.00;;;;16511203;28;20299;-48
2022/10/17 14:55:31;;;;;;;2.40;2.20;;;;;27.40;99617.00;;;;16508939;28;20224;-49
2022/10/17 15:03:35;;;;;;;4.07;2.63;;;;;27.60;99620.00;;;;16510842;28;20196;-49
2022/10/17 15:11:37;;;;;;;2.70;2.50;;;;;28.30;99619.00;;;;16506659;28;20236;-48
2022/10/17 15:19:41;;;;;;;4.60;3.33;;;;;28.50;99631.00;;;;16505051;28;20593;-49
2022/10/17 15:27:44;;;;;;;6.40;2.90;;;;;27.60;99632.00;;;;16510990;28;20227;-49
2022/10/17 15:35:48;;;;;;;9.10;3.20;;;;;27.00;99634.00;;;;16511009;28;20231;-49
2022/10/17 15:43:50;;;;;;;5.87;3.03;;;;;26.40;99636.00;;;;16486563;28;20668;-48
2022/10/17 15:51:54;;;;;;;11.40;3.67;;;;;24.30;99650.00;;;;16508601;28;20275;-48
2022/10/17 15:59:59;;;;;;;6.73;3.33;;;;;23.40;99654.00;;;;16508496;28;20240;-48
2022/10/17 16:08:02;;;;;;;7.77;3.10;;;;;22.90;99666.00;;;;16503941;28;20228;-47
2022/10/17 16:16:05;;;;;;;17.97;4.17;;;;;22.30;99671.00;;;;16502335;28;20848;-49
2022/10/17 16:24:10;;;;;;;10.60;4.20;;;;;21.90;99675.00;;;;16508568;28;20207;-49
2022/10/17 16:32:13;;;;;;;8.10;4.43;;;;;21.40;99694.00;;;;16507545;28;20223;-48
2022/10/17 16:40:17;;;;;;;9.10;4.83;;;;;21.20;99698.00;;;;16514343;28;20232;-48
2022/10/17 16:48:19;;;;;;;10.43;5.00;;;;;20.80;99714.00;;;;16517715;28;20220;-48
2022/10/17 16:56:28;;;;;;;11.50;5.87;;;;;20.50;99714.00;;;;16521238;28;20619;-48
2022/10/17 17:04:31;;;;;;;18.83;6.37;;;;;20.50;99733.00;;;;16518002;28;20196;-48
2022/10/17 17:12:35;;;;;;;14.13;4.93;;;;;20.20;99731.00;;;;16522630;28;20690;-48
2022/10/17 17:20:38;;;;;;;12.80;5.30;;;;;19.80;99731.00;;;;16517314;28;20239;-48
2022/10/17 17:28:42;;;;;;;8.40;5.10;;;;;19.50;99748.00;;;;16512142;28;20230;-48
2022/10/17 17:36:44;;;;;;;12.70;5.47;;;;;19.30;99754.00;;;;16516667;28;20227;-48
2022/10/17 17:44:49;;;;;;;10.60;5.53;;;;;19.10;99755.00;;;;16520165;28;20271;-48
2022/10/17 17:52:51;;;;;;;12.43;5.90;;;;;19.10;99760.00;;;;16512797;28;20288;-48
2022/10/17 18:00:55;;;;;;;15.67;6.07;;;;;18.90;99769.00;;;;16507502;28;20240;-47
2022/10/17 18:08:58;;;;;;;17.13;6.03;;;;;18.80;99773.00;;;;16503972;28;20369;-48
2022/10/17 18:17:02;;;;;;;12.03;6.50;;;;;19.00;99788.00;;;;16509934;28;20246;-48
2022/10/17 18:25:05;;;;;;;12.13;6.10;;;;;18.50;99785.00;;;;16508174;28;20224;-48
2022/10/17 18:33:09;;;;;;;11.03;6.40;;;;;18.50;99791.00;;;;16505520;28;20203;-48
2022/10/17 18:41:13;;;;;;;17.83;6.37;;;;;18.80;99801.00;;;;16509217;28;20225;-49
2022/10/17 18:49:21;;;;;;;8.73;5.87;;;;;18.90;99802.00;;;;16511066;28;20219;-49
2022/10/17 18:57:24;;;;;;;13.90;6.90;;;;;18.90;99807.00;;;;16505990;28;20233;-50
2022/10/17 19:05:28;;;;;;;11.93;6.23;;;;;18.10;99820.00;;;;16507980;28;20211;-48
2022/10/17 19:13:32;;;;;;;8.10;6.27;;;;;18.20;99817.00;;;;16508516;28;20215;-48
2022/10/17 19:21:36;;;;;;;9.10;5.47;;;;;18.00;99831.00;;;;16502597;28;20493;-48
2022/10/17 19:29:42;;;;;;;13.33;6.77;;;;;18.10;99821.00;;;;16508119;28;20719;-48
2022/10/17 19:37:45;;;;;;;11.10;7.50;;;;;18.40;99831.00;;;;16495334;28;21615;-48
2022/10/17 19:45:55;;;;;;;14.93;9.07;;;;;17.70;99836.00;;;;16506359;28;20774;-47
2022/10/17 19:54:00;;;;;;;10.97;7.53;;;;;18.00;99826.00;;;;16504137;28;20225;-48
2022/10/17 20:02:02;;;;;;;17.47;7.93;;;;;18.10;99821.00;;;;16502219;28;20223;-48
2022/10/17 20:10:07;;;;;;;13.90;6.70;;;;;18.00;99822.00;;;;16502236;28;21137;-48
2022/10/17 20:18:10;;;;;;;10.33;7.03;;;;;17.80;99822.00;;;;16505012;28;20247;-48
2022/10/17 20:26:15;;;;;;;9.17;7.00;;;;;18.10;99813.00;;;;16517470;28;20258;-48
2022/10/17 20:34:18;;;;;;;6.97;6.37;;;;;18.00;99826.00;;;;16516748;28;20794;-48
2022/10/17 20:43:14;;;;;;;13.07;7.50;;;;;18.00;99834.00;;;;16512581;28;20220;-48
2022/10/17 20:51:43;;;;;;;10.23;7.10;;;;;17.60;99840.00;;;;16510883;28;20715;-48
2022/10/17 20:59:45;;;;;;;17.83;7.70;;;;;17.80;99841.00;;;;16511874;28;20227;-47
2022/10/17 21:07:50;;;;;;;17.13;9.20;;;;;17.80;99841.00;;;;16514621;28;20235;-48
2022/10/17 21:15:52;;;;;;;12.30;6.30;;;;;17.50;99844.00;;;;16510689;28;20247;-48
2022/10/17 21:23:59;;;;;;;10.73;7.07;;;;;17.30;99850.00;;;;16520824;28;20200;-48
2022/10/17 21:32:02;;;;;;;9.90;7.50;;;;;16.80;99863.00;;;;16521833;28;20229;-48
2022/10/17 21:40:06;;;;;;;12.23;7.70;;;;;17.10;99870.00;;;;16523816;28;20227;-48
2022/10/17 21:48:09;;;;;;;11.53;6.67;;;;;17.70;99858.00;;;;16518313;28;20232;-48
2022/10/17 21:56:14;;;;;;;9.47;6.97;;;;;17.10;99856.00;;;;16519893;28;20227;-48
2022/10/17 22:04:17;;;;;;;13.77;7.13;;;;;16.90;99857.00;;;;16520257;28;20705;-48
2022/10/17 22:12:21;;;;;;;10.87;7.37;;;;;16.80;99845.00;;;;16510146;28;20366;-48
2022/10/17 22:20:24;;;;;;;14.97;8.60;;;;;17.80;99836.00;;;;16515555;28;20595;-48
2022/10/17 22:28:27;;;;;;;10.60;6.73;;;;;16.80;99841.00;;;;16518634;28;20603;-48
2022/10/17 22:36:30;;;;;;;9.10;7.60;;;;;16.80;99838.00;;;;16514340;28;20727;-48
2022/10/17 22:44:33;;;;;;;14.97;8.17;;;;;16.70;99826.00;;;;16517090;28;20200;-48
2022/10/17 22:52:36;;;;;;;13.07;7.70;;;;;16.60;99826.00;;;;16517898;28;20666;-48
2022/10/17 23:00:40;;;;;;;12.50;7.80;;;;;17.10;99819.00;;;;16520704;28;20343;-48
2022/10/17 23:08:43;;;;;;;10.30;7.60;;;;;17.60;99805.00;;;;16517638;28;20242;-48
2022/10/17 23:16:47;;;;;;;11.10;8.57;;;;;17.60;99812.00;;;;16517398;28;20596;-48
2022/10/17 23:24:49;;;;;;;14.90;8.60;;;;;17.50;99808.00;;;;16509844;28;20615;-48
2022/10/17 23:32:53;;;;;;;13.33;8.97;;;;;17.50;99801.00;;;;16512102;28;20198;-48
2022/10/17 23:40:56;;;;;;;9.83;7.97;;;;;17.40;99800.00;;;;16510330;28;20243;-48
2022/10/17 23:48:59;;;;;;;8.60;7.30;;;;;17.40;99788.00;;;;16515667;28;21145;-48
2022/10/17 23:57:02;;;;;;;27.67;8.70;;;;;17.30;99787.00;;;;16512324;28;20725;-48
